createdAt,value
2023-04-12T05:44:47.441Z,99678.81
2023-04-12T05:47:34.635Z,99678.81
2023-04-12T05:50:21.067Z,99681.13
2023-04-12T05:53:07.101Z,99675.88
2023-04-12T05:55:54.376Z,99676.00
2023-04-12T05:58:39.669Z,99675.75
2023-04-12T06:01:35.152Z,99680.44
2023-04-12T06:04:21.165Z,99680.72
2023-04-12T06:07:10.316Z,99672.03
2023-04-12T06:09:57.128Z,99671.81
2023-04-12T06:12:46.348Z,99672.53
2023-04-12T06:15:32.260Z,99666.72
2023-04-12T06:18:19.954Z,99652.97
2023-04-12T06:21:05.648Z,99659.25
2023-04-12T06:23:51.216Z,99666.91
2023-04-12T06:26:40.132Z,99660.38
2023-04-12T06:29:26.218Z,99667.28
2023-04-12T06:32:14.049Z,99665.53
2023-04-12T06:34:59.408Z,99646.34
2023-04-12T06:37:44.708Z,99641.03
2023-04-12T06:40:34.667Z,99673.34
2023-04-12T06:43:20.555Z,99671.81
2023-04-12T06:46:06.751Z,99670.59
2023-04-12T06:48:57.103Z,99675.59
2023-04-12T06:51:45.292Z,99679.19
2023-04-12T06:54:37.826Z,99681.81
2023-04-12T06:57:24.050Z,99679.59
2023-04-12T07:00:10.652Z,99679.06
2023-04-12T07:02:58.527Z,99666.56
2023-04-12T07:05:44.042Z,99660.09
2023-04-12T07:08:30.220Z,99644.97
2023-04-12T07:11:21.453Z,99643.69
2023-04-12T07:14:07.428Z,99657.09
2023-04-12T07:16:52.804Z,99645.03
2023-04-12T07:19:53.029Z,99658.87
2023-04-12T07:22:39.425Z,99660.19
2023-04-12T07:25:26.709Z,99657.72
2023-04-12T07:28:12.045Z,99663.75
2023-04-12T07:30:58.491Z,99669.47
2023-04-12T07:33:44.223Z,99668.13
2023-04-12T07:36:29.801Z,99661.91
2023-04-12T07:39:15.296Z,99664.94
2023-04-12T07:42:04.883Z,99632.56
2023-04-12T07:44:50.611Z,99646.59
2023-04-12T07:47:37.834Z,99657.87
2023-04-12T07:50:23.162Z,99653.06
2023-04-12T07:53:23.018Z,99664.09
2023-04-12T07:56:08.999Z,99658.09
2023-04-12T07:58:57.546Z,99654.69
2023-04-12T08:01:43.408Z,99641.72
2023-04-12T08:04:29.151Z,99649.78
2023-04-12T08:07:14.821Z,99644.69
2023-04-12T08:10:06.061Z,99648.47
2023-04-12T08:12:51.482Z,99630.56
2023-04-12T08:15:37.932Z,99635.22
2023-04-12T08:18:26.689Z,99623.31
2023-04-12T08:21:13.189Z,99626.09
2023-04-12T08:23:58.676Z,99612.22
2023-04-12T08:26:44.459Z,99617.22
2023-04-12T08:29:29.962Z,99625.41
2023-04-12T08:32:16.700Z,99619.44
2023-04-12T08:35:02.922Z,99614.81
2023-04-12T08:37:50.025Z,99604.03
2023-04-12T08:40:35.813Z,99602.13
2023-04-12T08:43:22.834Z,99607.53
2023-04-12T08:46:09.079Z,99610.09
2023-04-12T08:48:54.918Z,99617.38
2023-04-12T08:51:44.908Z,99615.09
2023-04-12T08:54:31.659Z,99609.47
2023-04-12T08:57:18.808Z,99611.50
2023-04-12T09:00:05.390Z,99607.84
2023-04-12T09:02:51.330Z,99620.47
2023-04-12T09:05:37.079Z,99604.37
2023-04-12T09:08:26.221Z,99599.53
2023-04-12T09:11:29.198Z,99599.03
2023-04-12T09:14:25.852Z,99596.59
2023-04-12T09:17:34.007Z,99600.81
2023-04-12T09:20:21.875Z,99592.50
2023-04-12T09:23:20.142Z,99579.63
2023-04-12T09:26:06.816Z,99585.03
2023-04-12T09:28:52.195Z,99585.59
2023-04-12T09:31:38.867Z,99578.69
2023-04-12T09:34:31.588Z,99565.72
2023-04-12T09:37:18.385Z,99566.34
2023-04-12T09:40:06.225Z,99559.78
2023-04-12T09:42:53.862Z,99561.13
2023-04-12T09:45:42.017Z,99548.88
2023-04-12T09:48:28.903Z,99544.56
2023-04-12T09:51:24.530Z,99549.13
2023-04-12T09:54:12.154Z,99543.97
2023-04-12T09:56:57.680Z,99532.00
2023-04-12T09:59:49.831Z,99545.03
2023-04-12T10:02:35.856Z,99538.06
2023-04-12T10:05:23.846Z,99532.66
2023-04-12T10:08:12.057Z,99526.41
2023-04-12T10:10:58.500Z,99542.13
2023-04-12T10:13:44.572Z,99547.66
2023-04-12T10:16:31.216Z,99536.81
2023-04-12T10:19:17.626Z,99518.78
2023-04-12T10:22:03.045Z,99520.72
2023-04-12T10:24:49.370Z,99512.28
2023-04-12T10:27:34.983Z,99499.91
2023-04-12T10:30:25.947Z,99494.62
2023-04-12T10:33:13.655Z,99478.97
2023-04-12T10:36:03.699Z,99484.41
2023-04-12T10:39:10.102Z,99480.50
2023-04-12T10:42:24.945Z,99451.31
2023-04-12T10:45:35.447Z,99479.75
2023-04-12T10:48:38.186Z,99479.19
2023-04-12T10:51:27.160Z,99475.41
2023-04-12T10:54:17.239Z,99466.44
2023-04-12T10:57:06.842Z,99459.53
2023-04-12T11:00:03.242Z,99457.84
2023-04-12T11:03:09.813Z,99465.50
2023-04-12T11:06:19.645Z,99476.03
2023-04-12T11:09:22.399Z,99463.25
2023-04-12T11:12:10.966Z,99472.88
2023-04-12T11:15:01.413Z,99472.06
2023-04-12T11:17:54.588Z,99468.16
2023-04-12T11:20:41.012Z,99426.62
2023-04-12T11:23:27.248Z,99454.72
2023-04-12T11:26:12.871Z,99455.75
2023-04-12T11:29:02.079Z,99455.09
2023-04-12T11:31:50.160Z,99440.44
2023-04-12T11:34:37.028Z,99439.97
2023-04-12T11:37:23.223Z,99437.25
2023-04-12T11:40:09.644Z,99436.06
2023-04-12T11:42:57.854Z,99436.00
2023-04-12T11:45:44.846Z,99416.47
2023-04-12T11:48:30.628Z,99419.50
2023-04-12T11:51:31.617Z,99414.47
2023-04-12T11:54:17.774Z,99418.50
2023-04-12T11:57:05.038Z,99417.72
2023-04-12T11:59:52.310Z,99413.53
2023-04-12T12:02:46.088Z,99395.50
2023-04-12T12:05:37.455Z,99406.34
2023-04-12T12:08:24.485Z,99390.06
2023-04-12T12:11:10.108Z,99392.91
2023-04-12T12:13:56.938Z,99387.31
2023-04-12T12:16:42.591Z,99367.72
2023-04-12T12:19:29.454Z,99368.53
2023-04-12T12:22:20.807Z,99376.56
2023-04-12T12:25:06.955Z,99366.53
2023-04-12T12:27:57.292Z,99362.56
2023-04-12T12:30:42.663Z,99355.66
2023-04-12T12:33:45.862Z,99355.47
2023-04-12T12:36:34.179Z,99360.59
